Aviation Digital Data Service (ADDS)

Output produced by METARs form (0155 UTC 25 February 2018)
found at http://aviationweather.gov/adds/metars/
 
KSIF 250135Z AUTO 19005KT 10SM CLR 21/15 A3004 RMK AO2 T02100146